1857 Tropical Storm NOT_NAMED (1857290N32325)


IBTrACS version v04r00. Visit IBTrACS website for data access.
Please direct all questions to the IBTrACS Q and A forum

Storm track - Intensity - Wind Radii - Intensity Data - Source Data - All data

Summary Information

Storm ID 1857290N32325
Start Oct 16 12Z
Max Intensity 55 kt (Oct 17 12Z), 989 mb (Oct 23 06Z)
End Oct 23 18Z
ATCF IDs
Track status Best track data.

Storm track plot

Map of storm track

Intensity plots

Map of storm track

Radial wind information

No radial wind information for this storm


Position and Intensity Table

BASIN ISO_TIME_________ NATURE LAT LON MLC WIND MLC PRES
degrees north degrees east kts mb
NA 1857-10-16 12:00:00 SS 32.00 -35.50 35
NA 15:00:00 SS 32.16 -35.45 37
NA 18:00:00 SS 32.30 -35.40 40
NA 21:00:00 SS 32.40 -35.35 42
NA 1857-10-17 00:00:00 SS 32.50 -35.30 45
NA 03:00:00 SS 32.65 -35.25 47
NA 06:00:00 SS 32.80 -35.20 50
NA 09:00:00 SS 32.91 -35.14 52
NA 12:00:00 SS 33.00 -35.10 55
NA 15:00:00 SS 33.09 -35.10 55
NA 18:00:00 SS 33.20 -35.10 55
NA 21:00:00 SS 33.34 -35.05 55
NA 1857-10-18 00:00:00 SS 33.50 -35.00 55
NA 03:00:00 SS 33.66 -34.99 55
NA 06:00:00 TS 33.80 -35.00 55
NA 09:00:00 TS 33.90 -35.00 55
NA 12:00:00 TS 34.00 -35.00 55
NA 15:00:00 TS 34.15 -35.00 55
NA 18:00:00 TS 34.30 -35.00 55
NA 21:00:00 TS 34.40 -35.00 55
NA 1857-10-19 00:00:00 TS 34.50 -35.00 55
NA 03:00:00 TS 34.65 -35.00 55
NA 06:00:00 TS 34.80 -35.00 55
NA 09:00:00 TS 34.90 -35.01 55
NA 12:00:00 TS 35.00 -35.00 55
NA 15:00:00 TS 35.14 -34.96 55
NA 18:00:00 TS 35.30 -34.90 55
NA 21:00:00 TS 35.45 -34.85 55
NA 1857-10-20 00:00:00 TS 35.60 -34.80 55
NA 03:00:00 TS 35.75 -34.75 55
NA 06:00:00 TS 35.90 -34.70 55
NA 09:00:00 TS 36.04 -34.65 55
NA 12:00:00 TS 36.20 -34.60 55
NA 15:00:00 TS 36.40 -34.55 55
NA 18:00:00 TS 36.60 -34.50 55
NA 21:00:00 TS 36.76 -34.45 55
NA 1857-10-21 00:00:00 TS 36.90 -34.40 55
NA 03:00:00 TS 37.05 -34.35 55
NA 06:00:00 TS 37.20 -34.30 55
NA 09:00:00 TS 37.31 -34.27 55
NA 12:00:00 TS 37.50 -34.20 55
NA 15:00:00 TS 37.87 -34.02 55
NA 18:00:00 TS 38.30 -33.80 55
NA 21:00:00 TS 38.65 -33.61 55
NA 1857-10-22 00:00:00 TS 39.00 -33.40 55
NA 03:00:00 TS 39.40 -33.15 52
NA 06:00:00 TS 39.80 -32.90 50
NA 09:00:00 TS 40.14 -32.71 47
NA 12:00:00 TS 40.50 -32.50 45
NA 15:00:00 TS 40.94 -32.22 45
NA 18:00:00 ET 41.40 -31.90 45
NA 21:00:00 ET 41.85 -31.59 45
NA 1857-10-23 00:00:00 ET 42.30 -31.30 45
NA 03:00:00 ET 42.76 -31.05 45
NA 06:00:00 ET 43.20 -30.80 45 989
NA 09:00:00 ET 43.61 -30.51 45
NA 12:00:00 ET 44.00 -30.20 45
NA 15:00:00 ET 44.40 -29.86 45
NA 18:00:00 ET 44.80 -29.50 45

Source Information

Agency Information
USA
TOKYO
CMA
HKO
NEWDELHI
REUNION
BOM
NADI
WELLINGTON
DS824
TD9636
TD9635
NEUMANN
MLC

All available IBTrACS Data

SEASON BASIN SUBBASIN ISO_TIME_________ NATURE LAT LON DIST2LAND LANDFALL IFLAG USA SSHS MLC LAT MLC LON MLC CLASS MLC WIND MLC PRES STORM SPEED STORM DIR
Year degrees north degrees east km km 1 degrees north degrees east kts mb kts degrees
1857 NA NA 1857-10-16 12:00:00 SS 32.00 -35.50 1839 1839 _____________O -1 32.00 -35.50 SS 35 3 15
1857 NA NA 15:00:00 SS 32.16 -35.45 1842 1833 _____________P -1 32.16 -35.45 SS 37 3 16
1857 NA NA 18:00:00 SS 32.30 -35.40 1835 1835 _____________O -1 32.30 -35.40 SS 40 3 20
1857 NA NA 21:00:00 SS 32.40 -35.35 1827 1827 _____________P -1 32.40 -35.35 SS 42 2 25
1857 NA NA 1857-10-17 00:00:00 SS 32.50 -35.30 1829 1829 _____________O -1 32.50 -35.30 SS 45 3 20
1857 NA NA 03:00:00 SS 32.65 -35.25 1824 1824 _____________P -1 32.65 -35.25 SS 47 3 16
1857 NA NA 06:00:00 SS 32.80 -35.20 1826 1819 _____________O -1 32.80 -35.20 SS 50 3 18
1857 NA NA 09:00:00 SS 32.91 -35.14 1819 1819 _____________P -1 32.91 -35.14 SS 52 2 25
1857 NA NA 12:00:00 SS 33.00 -35.10 1822 1822 _____________O -1 33.00 -35.10 SS 55 2 13
1857 NA NA 15:00:00 SS 33.09 -35.10 1824 1824 _____________P -1 33.09 -35.10 SS 55 2 8
1857 NA NA 18:00:00 SS 33.20 -35.10 1826 1826 _____________O -1 33.20 -35.10 SS 55 3 9
1857 NA NA 21:00:00 SS 33.34 -35.05 1829 1822 _____________P -1 33.34 -35.05 SS 55 3 14
1857 NA NA 1857-10-18 00:00:00 SS 33.50 -35.00 1825 1825 _____________O -1 33.50 -35.00 SS 55 3 6
1857 NA NA 03:00:00 SS 33.66 -34.99 1830 1830 _____________P -1 33.66 -34.99 SS 55 3 0
1857 NA NA 06:00:00 TS 33.80 -35.00 1833 1833 _____________O -1 33.80 -35.00 TS 55 2 354
1857 NA NA 09:00:00 TS 33.90 -35.00 1836 1836 _____________P -1 33.90 -35.00 TS 55 2 8
1857 NA NA 12:00:00 TS 34.00 -35.00 1839 1839 _____________O -1 34.00 -35.00 TS 55 3 2
1857 NA NA 15:00:00 TS 34.15 -35.00 1845 1842 _____________P -1 34.15 -35.00 TS 55 3 0
1857 NA NA 18:00:00 TS 34.30 -35.00 1848 1848 _____________O -1 34.30 -35.00 TS 55 3 2
1857 NA NA 21:00:00 TS 34.40 -35.00 1851 1851 _____________P -1 34.40 -35.00 TS 55 2 8
1857 NA NA 1857-10-19 00:00:00 TS 34.50 -35.00 1854 1854 _____________O -1 34.50 -35.00 TS 55 3 2
1857 NA NA 03:00:00 TS 34.65 -35.00 1861 1861 _____________P -1 34.65 -35.00 TS 55 3 0
1857 NA NA 06:00:00 TS 34.80 -35.00 1864 1864 _____________O -1 34.80 -35.00 TS 55 3 358
1857 NA NA 09:00:00 TS 34.90 -35.01 1867 1867 _____________P -1 34.90 -35.01 TS 55 2 8
1857 NA NA 12:00:00 TS 35.00 -35.00 1871 1871 _____________O -1 35.00 -35.00 TS 55 2 11
1857 NA NA 15:00:00 TS 35.14 -34.96 1874 1870 _____________P -1 35.14 -34.96 TS 55 3 14
1857 NA NA 18:00:00 TS 35.30 -34.90 1873 1873 _____________O -1 35.30 -34.90 TS 55 3 15
1857 NA NA 21:00:00 TS 35.45 -34.85 1872 1868 _____________P -1 35.45 -34.85 TS 55 3 14
1857 NA NA 1857-10-20 00:00:00 TS 35.60 -34.80 1876 1876 _____________O -1 35.60 -34.80 TS 55 3 14
1857 NA NA 03:00:00 TS 35.75 -34.75 1876 1876 _____________P -1 35.75 -34.75 TS 55 3 14
1857 NA NA 06:00:00 TS 35.90 -34.70 1880 1880 _____________O -1 35.90 -34.70 TS 55 3 16
1857 NA NA 09:00:00 TS 36.04 -34.65 1876 1876 _____________P -1 36.04 -34.65 TS 55 3 14
1857 NA NA 12:00:00 TS 36.20 -34.60 1884 1884 _____________O -1 36.20 -34.60 TS 55 4 13
1857 NA NA 15:00:00 TS 36.40 -34.55 1885 1885 _____________P -1 36.40 -34.55 TS 55 4 11
1857 NA NA 18:00:00 TS 36.60 -34.50 1894 1889 _____________O -1 36.60 -34.50 TS 55 4 13
1857 NA NA 21:00:00 TS 36.76 -34.45 1889 1881 _____________P -1 36.76 -34.45 TS 55 3 14
1857 NA NA 1857-10-21 00:00:00 TS 36.90 -34.40 1881 1874 _____________O -1 36.90 -34.40 TS 55 3 16
1857 NA NA 03:00:00 TS 37.05 -34.35 1873 1866 _____________P -1 37.05 -34.35 TS 55 3 14
1857 NA NA 06:00:00 TS 37.20 -34.30 1866 1859 _____________O -1 37.20 -34.30 TS 55 3 12
1857 NA NA 09:00:00 TS 37.31 -34.27 1859 1851 _____________P -1 37.31 -34.27 TS 55 3 14
1857 NA NA 12:00:00 TS 37.50 -34.20 1851 1836 _____________O -1 37.50 -34.20 TS 55 6 20
1857 NA NA 15:00:00 TS 37.87 -34.02 1836 1822 _____________P -1 37.87 -34.02 TS 55 9 22
1857 NA NA 18:00:00 TS 38.30 -33.80 1822 1809 _____________O -1 38.30 -33.80 TS 55 8 23
1857 NA NA 21:00:00 TS 38.65 -33.61 1816 1804 _____________P -1 38.65 -33.61 TS 55 8 24
1857 NA NA 1857-10-22 00:00:00 TS 39.00 -33.40 1804 1793 _____________O -1 39.00 -33.40 TS 55 8 25
1857 NA NA 03:00:00 TS 39.40 -33.15 1793 1788 _____________P -1 39.40 -33.15 TS 52 9 26
1857 NA NA 06:00:00 TS 39.80 -32.90 1789 1782 _____________O -1 39.80 -32.90 TS 50 8 25
1857 NA NA 09:00:00 TS 40.14 -32.71 1784 1772 _____________P -1 40.14 -32.71 TS 47 8 24
1857 NA NA 12:00:00 TS 40.50 -32.50 1773 1764 _____________O -1 40.50 -32.50 TS 45 9 25
1857 NA NA 15:00:00 TS 40.94 -32.22 1771 1761 _____________P -1 40.94 -32.22 TS 45 10 27
1857 NA NA 18:00:00 ET 41.40 -31.90 1764 1757 _____________O -1 41.40 -31.90 EX 45 10 27
1857 NA NA 21:00:00 ET 41.85 -31.59 1765 1759 _____________P -1 41.85 -31.59 EX 45 10 26
1857 NA NA 1857-10-23 00:00:00 ET 42.30 -31.30 1761 1754 _____________O -1 42.30 -31.30 EX 45 10 24
1857 NA NA 03:00:00 ET 42.76 -31.05 1756 1734 _____________P -1 42.76 -31.05 EX 45 10 22
1857 NA NA 06:00:00 ET 43.20 -30.80 1734 1705 _____________O -1 43.20 -30.80 EX 45 989 9 25
1857 NA NA 09:00:00 ET 43.61 -30.51 1705 1678 _____________P -1 43.61 -30.51 EX 45 9 29
1857 NA NA 12:00:00 ET 44.00 -30.20 1678 1651 _____________O -1 44.00 -30.20 EX 45 9 31
1857 NA NA 15:00:00 ET 44.40 -29.86 1651 1600 _____________P -1 44.40 -29.86 EX 45 9 32
1857 NA NA 18:00:00 ET 44.80 -29.50 1600 _____________O -1 44.80 -29.50 EX 45 10 32